Memphis International Airport
KMEM : now visible

Airfield :











YOU CAN JOIN US ON...

 
LOGIN :

Register | Disclaimer

   EN    FR    IT 

 









Legend :    VFR   Marginal VFR   IFR   Intensive IFR   Very Intensive IFR
Visi :
Ceiling :
>= 8 km
>= 3000ft
5 to 8 km
1000 to 3000 ft
1500m to 5 km
500 to 1000 ft
800 to 1500m
200 to 500 ft
< 800m
< 200 ft
Symbols :   Thunderstorms  Fog  Heavy snow  Heavy precipitations  Wind > 20 kt






- Airport Elevation : 341 ft
- IATA code : MEM


KMEM - Memphis International

CURRENT METAR :
  • 210154Z 20006KT 10SM -RA OVC050 06/03 A3018 RMK AO2 SLP222 P0001 T00610033 $

EXPIRED METARs :
  • 210054Z 21003KT 10SM -RA BKN070 OVC090 06/03 A3020 RMK AO2 SLP228 P0003 T00610033 $
  • 202354Z 22003KT 10SM -RA BKN070 OVC085 07/02 A3022 RMK AO2 SLP234 P0003 60003 T00670017 10106 20067 58007 $

TAF KMEM
Valid from the 21 at 00:00 until the 22 at 06:00 UTC


202321Z 2100/2206 22007KT P6SM VCSH OVC090
FM210300 20010G20KT P6SM VCSH OVC015
FM210600 21010G20KT 6SM BR OVC010 WS020/23040KT
TEMPO 2106/2110 4SM -SHRA OVC003
FM211000 26005KT 4SM -SHRA OVC008
FM211600 29005KT P6SM OVC010
FM212100 30004KT P6SM OVC030
KZME FIR / North America



MET'MAP, your aeronautical weather chart ! - Copyright ORBIFLY December 2007 - Disclaimer

ORBIFLY MET'MAP TEAM :

Programming & Development : Alexandra Zaïnal
Concept & original design : Baudouin d'Aumeries
Assistance for programming : Marc-Olivier Méhu
Technical & hardware support : Manuel Goepfert

Contact : metmap@orbifly.com




SOURCES & CREDITS :

   NOAA       Earth
Advisory